sensor_id;sensor_type;location;lat;lon;timestamp;P1;durP1;ratioP1;P2;durP2;ratioP2
8113;SDS011;4099;52.684;9.918;2023-06-22T00:00:58;7.97;;;7.37;;
8113;SDS011;4099;52.684;9.918;2023-06-22T00:06:01;8.67;;;7.93;;
8113;SDS011;4099;52.684;9.918;2023-06-22T00:11:03;8.00;;;7.40;;
8113;SDS011;4099;52.684;9.918;2023-06-22T00:16:07;7.40;;;6.90;;
8113;SDS011;4099;52.684;9.918;2023-06-22T00:21:09;8.20;;;7.60;;
8113;SDS011;4099;52.684;9.918;2023-06-22T00:26:12;7.97;;;7.30;;
8113;SDS011;4099;52.684;9.918;2023-06-22T00:31:16;8.53;;;7.80;;
8113;SDS011;4099;52.684;9.918;2023-06-22T00:36:18;8.60;;;7.90;;
8113;SDS011;4099;52.684;9.918;2023-06-22T00:41:20;7.93;;;7.27;;
8113;SDS011;4099;52.684;9.918;2023-06-22T00:46:24;8.03;;;7.33;;
8113;SDS011;4099;52.684;9.918;2023-06-22T00:51:26;9.07;;;8.27;;
8113;SDS011;4099;52.684;9.918;2023-06-22T00:56:29;8.73;;;8.03;;
8113;SDS011;4099;52.684;9.918;2023-06-22T01:01:32;8.97;;;8.20;;
8113;SDS011;4099;52.684;9.918;2023-06-22T01:06:35;8.87;;;8.17;;
8113;SDS011;4099;52.684;9.918;2023-06-22T01:11:57;8.33;;;7.73;;
8113;SDS011;4099;52.684;9.918;2023-06-22T01:17:06;8.47;;;7.77;;
8113;SDS011;4099;52.684;9.918;2023-06-22T01:22:10;8.10;;;7.50;;
8113;SDS011;4099;52.684;9.918;2023-06-22T01:27:17;8.47;;;7.87;;
8113;SDS011;4099;52.684;9.918;2023-06-22T01:32:32;7.93;;;7.33;;
8113;SDS011;4099;52.684;9.918;2023-06-22T01:37:36;7.97;;;7.37;;
8113;SDS011;4099;52.684;9.918;2023-06-22T01:42:40;9.00;;;8.20;;
8113;SDS011;4099;52.684;9.918;2023-06-22T01:47:45;8.67;;;7.93;;
8113;SDS011;4099;52.684;9.918;2023-06-22T01:52:48;8.43;;;7.73;;
8113;SDS011;4099;52.684;9.918;2023-06-22T01:57:49;8.17;;;7.47;;
8113;SDS011;4099;52.684;9.918;2023-06-22T02:02:53;8.73;;;8.00;;
8113;SDS011;4099;52.684;9.918;2023-06-22T02:08:00;8.40;;;7.70;;
8113;SDS011;4099;52.684;9.918;2023-06-22T02:13:06;8.10;;;7.43;;
8113;SDS011;4099;52.684;9.918;2023-06-22T02:18:11;9.23;;;8.43;;
8113;SDS011;4099;52.684;9.918;2023-06-22T02:23:14;8.40;;;7.70;;
8113;SDS011;4099;52.684;9.918;2023-06-22T02:28:16;8.10;;;7.40;;
8113;SDS011;4099;52.684;9.918;2023-06-22T02:33:20;7.57;;;6.93;;
8113;SDS011;4099;52.684;9.918;2023-06-22T02:38:22;7.67;;;6.97;;
8113;SDS011;4099;52.684;9.918;2023-06-22T02:43:26;8.43;;;7.63;;
8113;SDS011;4099;52.684;9.918;2023-06-22T02:48:29;7.70;;;7.10;;
8113;SDS011;4099;52.684;9.918;2023-06-22T02:53:31;7.83;;;7.23;;
8113;SDS011;4099;52.684;9.918;2023-06-22T02:58:33;8.50;;;7.83;;
8113;SDS011;4099;52.684;9.918;2023-06-22T03:03:42;7.93;;;7.33;;
8113;SDS011;4099;52.684;9.918;2023-06-22T03:08:44;7.30;;;6.80;;
8113;SDS011;4099;52.684;9.918;2023-06-22T03:13:46;8.10;;;7.50;;
8113;SDS011;4099;52.684;9.918;2023-06-22T03:18:50;8.10;;;7.50;;
8113;SDS011;4099;52.684;9.918;2023-06-22T03:23:53;8.10;;;7.40;;
8113;SDS011;4099;52.684;9.918;2023-06-22T03:28:56;7.53;;;6.93;;
8113;SDS011;4099;52.684;9.918;2023-06-22T03:33:59;7.30;;;6.70;;
8113;SDS011;4099;52.684;9.918;2023-06-22T03:39:01;7.37;;;6.67;;
8113;SDS011;4099;52.684;9.918;2023-06-22T03:44:04;6.93;;;6.33;;
8113;SDS011;4099;52.684;9.918;2023-06-22T03:49:07;8.23;;;7.43;;
8113;SDS011;4099;52.684;9.918;2023-06-22T03:54:09;7.80;;;7.10;;
8113;SDS011;4099;52.684;9.918;2023-06-22T03:59:11;8.13;;;7.33;;
8113;SDS011;4099;52.684;9.918;2023-06-22T04:04:14;7.87;;;7.17;;
8113;SDS011;4099;52.684;9.918;2023-06-22T04:09:16;6.93;;;6.33;;
8113;SDS011;4099;52.684;9.918;2023-06-22T04:14:18;7.13;;;6.50;;
8113;SDS011;4099;52.684;9.918;2023-06-22T04:19:22;7.40;;;6.70;;
8113;SDS011;4099;52.684;9.918;2023-06-22T04:24:23;10.30;;;7.50;;
8113;SDS011;4099;52.684;9.918;2023-06-22T04:29:26;8.30;;;6.93;;
8113;SDS011;4099;52.684;9.918;2023-06-22T04:34:31;8.70;;;7.20;;
8113;SDS011;4099;52.684;9.918;2023-06-22T04:39:33;8.17;;;7.53;;
8113;SDS011;4099;52.684;9.918;2023-06-22T04:44:36;7.53;;;6.93;;
8113;SDS011;4099;52.684;9.918;2023-06-22T04:49:39;7.70;;;7.00;;
8113;SDS011;4099;52.684;9.918;2023-06-22T04:54:43;7.93;;;7.27;;
8113;SDS011;4099;52.684;9.918;2023-06-22T04:59:47;7.53;;;6.83;;
8113;SDS011;4099;52.684;9.918;2023-06-22T05:04:50;7.40;;;6.70;;
8113;SDS011;4099;52.684;9.918;2023-06-22T05:09:57;6.73;;;6.23;;
8113;SDS011;4099;52.684;9.918;2023-06-22T05:14:58;7.50;;;6.87;;
8113;SDS011;4099;52.684;9.918;2023-06-22T05:20:03;7.03;;;6.40;;
8113;SDS011;4099;52.684;9.918;2023-06-22T05:25:07;6.83;;;6.20;;
8113;SDS011;4099;52.684;9.918;2023-06-22T05:30:10;6.73;;;6.23;;
8113;SDS011;4099;52.684;9.918;2023-06-22T05:35:14;6.70;;;6.17;;
8113;SDS011;4099;52.684;9.918;2023-06-22T05:40:17;6.10;;;5.60;;
8113;SDS011;4099;52.684;9.918;2023-06-22T05:45:18;5.83;;;5.43;;
8113;SDS011;4099;52.684;9.918;2023-06-22T05:50:22;6.37;;;5.80;;
8113;SDS011;4099;52.684;9.918;2023-06-22T05:55:24;6.33;;;5.83;;
8113;SDS011;4099;52.684;9.918;2023-06-22T06:00:26;6.00;;;5.50;;
8113;SDS011;4099;52.684;9.918;2023-06-22T06:05:29;6.20;;;5.63;;
8113;SDS011;4099;52.684;9.918;2023-06-22T06:10:32;6.00;;;5.53;;
8113;SDS011;4099;52.684;9.918;2023-06-22T06:15:34;6.27;;;5.77;;
8113;SDS011;4099;52.684;9.918;2023-06-22T06:20:38;5.70;;;5.30;;
8113;SDS011;4099;52.684;9.918;2023-06-22T06:25:39;5.87;;;5.30;;
8113;SDS011;4099;52.684;9.918;2023-06-22T06:30:42;5.80;;;5.30;;
8113;SDS011;4099;52.684;9.918;2023-06-22T06:35:45;6.40;;;5.80;;
8113;SDS011;4099;52.684;9.918;2023-06-22T06:40:47;5.77;;;5.37;;
8113;SDS011;4099;52.684;9.918;2023-06-22T06:45:49;5.70;;;5.30;;
8113;SDS011;4099;52.684;9.918;2023-06-22T06:50:52;5.97;;;5.47;;
8113;SDS011;4099;52.684;9.918;2023-06-22T06:55:54;6.40;;;5.90;;
8113;SDS011;4099;52.684;9.918;2023-06-22T07:00:57;6.37;;;5.87;;
8113;SDS011;4099;52.684;9.918;2023-06-22T07:06:00;5.80;;;5.40;;
8113;SDS011;4099;52.684;9.918;2023-06-22T07:11:02;6.00;;;5.40;;
8113;SDS011;4099;52.684;9.918;2023-06-22T07:16:04;5.70;;;5.20;;
8113;SDS011;4099;52.684;9.918;2023-06-22T07:21:07;5.37;;;4.97;;
8113;SDS011;4099;52.684;9.918;2023-06-22T07:26:09;5.28;;;4.80;;
8113;SDS011;4099;52.684;9.918;2023-06-22T07:31:12;5.22;;;4.78;;
8113;SDS011;4099;52.684;9.918;2023-06-22T07:36:16;5.10;;;4.70;;
8113;SDS011;4099;52.684;9.918;2023-06-22T07:41:18;5.32;;;4.90;;
8113;SDS011;4099;52.684;9.918;2023-06-22T07:46:20;5.10;;;4.60;;
8113;SDS011;4099;52.684;9.918;2023-06-22T07:51:24;5.40;;;5.00;;
8113;SDS011;4099;52.684;9.918;2023-06-22T07:56:25;5.00;;;4.60;;
8113;SDS011;4099;52.684;9.918;2023-06-22T08:01:27;5.28;;;4.78;;
8113;SDS011;4099;52.684;9.918;2023-06-22T08:06:30;5.65;;;5.25;;
8113;SDS011;4099;52.684;9.918;2023-06-22T08:11:35;6.40;;;5.90;;
8113;SDS011;4099;52.684;9.918;2023-06-22T08:16:37;6.82;;;6.32;;
8113;SDS011;4099;52.684;9.918;2023-06-22T08:21:43;6.75;;;6.25;;
8113;SDS011;4099;52.684;9.918;2023-06-22T08:26:45;7.20;;;6.65;;
8113;SDS011;4099;52.684;9.918;2023-06-22T08:31:46;7.97;;;7.30;;
8113;SDS011;4099;52.684;9.918;2023-06-22T08:36:49;7.13;;;6.53;;
8113;SDS011;4099;52.684;9.918;2023-06-22T08:41:52;8.18;;;7.47;;
8113;SDS011;4099;52.684;9.918;2023-06-22T08:46:54;7.30;;;6.80;;
8113;SDS011;4099;52.684;9.918;2023-06-22T08:51:58;7.85;;;7.25;;
8113;SDS011;4099;52.684;9.918;2023-06-22T08:57:00;8.25;;;7.55;;
8113;SDS011;4099;52.684;9.918;2023-06-22T09:02:03;8.30;;;7.50;;
8113;SDS011;4099;52.684;9.918;2023-06-22T09:07:07;8.38;;;7.78;;
8113;SDS011;4099;52.684;9.918;2023-06-22T09:12:09;9.57;;;8.68;;
8113;SDS011;4099;52.684;9.918;2023-06-22T09:17:12;9.63;;;8.82;;
8113;SDS011;4099;52.684;9.918;2023-06-22T09:22:15;8.70;;;7.90;;
8113;SDS011;4099;52.684;9.918;2023-06-22T09:27:16;8.93;;;8.23;;
8113;SDS011;4099;52.684;9.918;2023-06-22T09:32:19;9.05;;;8.25;;
8113;SDS011;4099;52.684;9.918;2023-06-22T09:37:22;9.52;;;8.73;;
8113;SDS011;4099;52.684;9.918;2023-06-22T09:42:24;8.93;;;8.23;;
8113;SDS011;4099;52.684;9.918;2023-06-22T09:47:26;9.18;;;8.48;;
8113;SDS011;4099;52.684;9.918;2023-06-22T09:52:29;9.68;;;8.98;;
8113;SDS011;4099;52.684;9.918;2023-06-22T09:57:31;9.10;;;8.40;;
8113;SDS011;4099;52.684;9.918;2023-06-22T10:02:34;9.32;;;8.63;;
8113;SDS011;4099;52.684;9.918;2023-06-22T10:07:38;10.63;;;9.82;;
8113;SDS011;4099;52.684;9.918;2023-06-22T10:12:45;10.50;;;9.63;;
8113;SDS011;4099;52.684;9.918;2023-06-22T10:17:48;9.70;;;8.80;;
8113;SDS011;4099;52.684;9.918;2023-06-22T10:22:52;10.68;;;9.88;;
8113;SDS011;4099;52.684;9.918;2023-06-22T10:27:54;10.55;;;9.75;;
8113;SDS011;4099;52.684;9.918;2023-06-22T10:32:56;11.10;;;10.25;;
8113;SDS011;4099;52.684;9.918;2023-06-22T10:37:59;11.32;;;10.35;;
8113;SDS011;4099;52.684;9.918;2023-06-22T10:43:01;11.80;;;10.73;;
8113;SDS011;4099;52.684;9.918;2023-06-22T10:48:03;10.68;;;9.77;;
8113;SDS011;4099;52.684;9.918;2023-06-22T10:53:07;11.27;;;10.45;;
8113;SDS011;4099;52.684;9.918;2023-06-22T10:58:09;11.02;;;10.13;;
8113;SDS011;4099;52.684;9.918;2023-06-22T11:03:11;11.50;;;10.60;;
8113;SDS011;4099;52.684;9.918;2023-06-22T11:08:15;11.50;;;10.60;;
8113;SDS011;4099;52.684;9.918;2023-06-22T11:13:17;12.27;;;11.35;;
8113;SDS011;4099;52.684;9.918;2023-06-22T11:18:19;11.32;;;10.38;;
8113;SDS011;4099;52.684;9.918;2023-06-22T11:23:24;11.65;;;10.63;;
8113;SDS011;4099;52.684;9.918;2023-06-22T11:28:27;11.38;;;10.57;;
8113;SDS011;4099;52.684;9.918;2023-06-22T11:33:28;10.90;;;10.10;;
8113;SDS011;4099;52.684;9.918;2023-06-22T11:38:32;10.02;;;9.23;;
8113;SDS011;4099;52.684;9.918;2023-06-22T11:43:33;11.48;;;10.57;;
8113;SDS011;4099;52.684;9.918;2023-06-22T11:48:35;11.38;;;10.48;;
8113;SDS011;4099;52.684;9.918;2023-06-22T11:53:39;11.52;;;10.50;;
8113;SDS011;4099;52.684;9.918;2023-06-22T11:58:41;10.80;;;10.00;;
8113;SDS011;4099;52.684;9.918;2023-06-22T12:03:43;10.77;;;9.95;;
8113;SDS011;4099;52.684;9.918;2023-06-22T12:08:46;10.95;;;10.15;;
8113;SDS011;4099;52.684;9.918;2023-06-22T12:13:47;10.52;;;9.73;;
8113;SDS011;4099;52.684;9.918;2023-06-22T12:18:49;11.02;;;10.23;;
8113;SDS011;4099;52.684;9.918;2023-06-22T12:23:53;11.00;;;10.02;;
8113;SDS011;4099;52.684;9.918;2023-06-22T12:28:55;9.93;;;9.23;;
8113;SDS011;4099;52.684;9.918;2023-06-22T12:33:57;10.52;;;9.73;;
8113;SDS011;4099;52.684;9.918;2023-06-22T12:39:00;9.88;;;9.07;;
8113;SDS011;4099;52.684;9.918;2023-06-22T12:44:02;11.05;;;10.23;;
8113;SDS011;4099;52.684;9.918;2023-06-22T12:49:04;11.07;;;10.18;;
8113;SDS011;4099;52.684;9.918;2023-06-22T12:54:07;10.75;;;9.93;;
8113;SDS011;4099;52.684;9.918;2023-06-22T12:59:09;10.57;;;9.80;;
8113;SDS011;4099;52.684;9.918;2023-06-22T13:04:11;10.45;;;9.65;;
8113;SDS011;4099;52.684;9.918;2023-06-22T13:09:19;10.70;;;9.90;;
8113;SDS011;4099;52.684;9.918;2023-06-22T13:14:21;9.73;;;8.98;;
8113;SDS011;4099;52.684;9.918;2023-06-22T13:19:23;10.27;;;9.48;;
8113;SDS011;4099;52.684;9.918;2023-06-22T13:24:27;9.85;;;9.05;;
8113;SDS011;4099;52.684;9.918;2023-06-22T13:29:29;10.18;;;9.40;;
8113;SDS011;4099;52.684;9.918;2023-06-22T13:34:31;10.70;;;9.90;;
8113;SDS011;4099;52.684;9.918;2023-06-22T13:39:35;9.45;;;8.65;;
8113;SDS011;4099;52.684;9.918;2023-06-22T13:44:37;9.05;;;8.35;;
8113;SDS011;4099;52.684;9.918;2023-06-22T13:49:39;9.80;;;9.00;;
8113;SDS011;4099;52.684;9.918;2023-06-22T13:54:42;10.38;;;9.60;;
8113;SDS011;4099;52.684;9.918;2023-06-22T13:59:43;9.98;;;9.10;;
8113;SDS011;4099;52.684;9.918;2023-06-22T14:04:45;10.10;;;9.30;;
8113;SDS011;4099;52.684;9.918;2023-06-22T14:09:49;10.60;;;9.80;;
8113;SDS011;4099;52.684;9.918;2023-06-22T14:14:51;10.38;;;9.48;;
8113;SDS011;4099;52.684;9.918;2023-06-22T14:19:53;10.70;;;9.80;;
8113;SDS011;4099;52.684;9.918;2023-06-22T14:24:57;10.65;;;9.82;;
8113;SDS011;4099;52.684;9.918;2023-06-22T14:29:59;11.20;;;10.30;;
8113;SDS011;4099;52.684;9.918;2023-06-22T14:35:02;11.80;;;10.90;;
8113;SDS011;4099;52.684;9.918;2023-06-22T14:40:06;11.52;;;10.50;;
8113;SDS011;4099;52.684;9.918;2023-06-22T14:45:08;11.68;;;10.68;;
8113;SDS011;4099;52.684;9.918;2023-06-22T14:50:10;11.05;;;10.18;;
8113;SDS011;4099;52.684;9.918;2023-06-22T14:55:16;10.52;;;9.70;;
8113;SDS011;4099;52.684;9.918;2023-06-22T15:00:19;9.77;;;9.05;;
8113;SDS011;4099;52.684;9.918;2023-06-22T15:05:21;10.15;;;9.25;;
8113;SDS011;4099;52.684;9.918;2023-06-22T15:10:25;9.57;;;8.88;;
8113;SDS011;4099;52.684;9.918;2023-06-22T15:15:28;10.87;;;10.07;;
8113;SDS011;4099;52.684;9.918;2023-06-22T15:20:30;10.35;;;9.55;;
8113;SDS011;4099;52.684;9.918;2023-06-22T15:25:33;11.23;;;10.40;;
8113;SDS011;4099;52.684;9.918;2023-06-22T15:30:36;10.55;;;9.75;;
8113;SDS011;4099;52.684;9.918;2023-06-22T15:35:38;11.97;;;10.90;;
8113;SDS011;4099;52.684;9.918;2023-06-22T15:40:41;12.20;;;11.17;;
8113;SDS011;4099;52.684;9.918;2023-06-22T15:45:43;12.13;;;11.03;;
8113;SDS011;4099;52.684;9.918;2023-06-22T15:50:45;12.47;;;11.27;;
8113;SDS011;4099;52.684;9.918;2023-06-22T15:55:48;14.13;;;12.83;;
8113;SDS011;4099;52.684;9.918;2023-06-22T16:00:50;15.03;;;13.63;;
8113;SDS011;4099;52.684;9.918;2023-06-22T16:05:52;15.37;;;13.77;;
8113;SDS011;4099;52.684;9.918;2023-06-22T16:10:55;14.70;;;13.30;;
8113;SDS011;4099;52.684;9.918;2023-06-22T16:15:58;16.13;;;14.73;;
8113;SDS011;4099;52.684;9.918;2023-06-22T16:21:01;14.40;;;13.10;;
8113;SDS011;4099;52.684;9.918;2023-06-22T16:26:05;15.07;;;13.70;;
8113;SDS011;4099;52.684;9.918;2023-06-22T16:31:07;15.73;;;14.23;;
8113;SDS011;4099;52.684;9.918;2023-06-22T16:36:09;15.17;;;13.77;;
8113;SDS011;4099;52.684;9.918;2023-06-22T16:41:12;16.27;;;14.67;;
8113;SDS011;4099;52.684;9.918;2023-06-22T16:46:15;14.93;;;13.67;;
8113;SDS011;4099;52.684;9.918;2023-06-22T16:51:16;15.83;;;14.43;;
8113;SDS011;4099;52.684;9.918;2023-06-22T16:56:22;16.07;;;14.67;;
8113;SDS011;4099;52.684;9.918;2023-06-22T17:01:25;16.60;;;14.80;;
8113;SDS011;4099;52.684;9.918;2023-06-22T17:06:28;16.50;;;14.70;;
8113;SDS011;4099;52.684;9.918;2023-06-22T17:11:33;16.23;;;14.90;;
8113;SDS011;4099;52.684;9.918;2023-06-22T17:16:36;16.33;;;14.83;;
8113;SDS011;4099;52.684;9.918;2023-06-22T17:21:42;15.70;;;14.30;;
8113;SDS011;4099;52.684;9.918;2023-06-22T17:26:47;15.93;;;14.53;;
8113;SDS011;4099;52.684;9.918;2023-06-22T17:31:49;16.37;;;14.97;;
8113;SDS011;4099;52.684;9.918;2023-06-22T17:36:57;15.77;;;14.47;;
8113;SDS011;4099;52.684;9.918;2023-06-22T17:42:02;15.77;;;14.40;;
8113;SDS011;4099;52.684;9.918;2023-06-22T17:47:09;15.70;;;14.33;;
8113;SDS011;4099;52.684;9.918;2023-06-22T17:52:15;15.77;;;14.23;;
8113;SDS011;4099;52.684;9.918;2023-06-22T17:57:20;15.80;;;14.40;;
8113;SDS011;4099;52.684;9.918;2023-06-22T18:02:23;16.30;;;14.80;;
8113;SDS011;4099;52.684;9.918;2023-06-22T18:07:26;15.20;;;13.83;;
8113;SDS011;4099;52.684;9.918;2023-06-22T18:12:33;14.50;;;13.17;;
8113;SDS011;4099;52.684;9.918;2023-06-22T18:17:36;15.80;;;14.40;;
8113;SDS011;4099;52.684;9.918;2023-06-22T18:22:38;16.13;;;14.60;;
8113;SDS011;4099;52.684;9.918;2023-06-22T18:27:43;15.10;;;13.80;;
8113;SDS011;4099;52.684;9.918;2023-06-22T18:32:47;16.00;;;14.60;;
8113;SDS011;4099;52.684;9.918;2023-06-22T18:37:49;14.20;;;12.93;;
8113;SDS011;4099;52.684;9.918;2023-06-22T18:42:56;16.10;;;14.50;;
8113;SDS011;4099;52.684;9.918;2023-06-22T18:48:01;14.07;;;12.87;;
8113;SDS011;4099;52.684;9.918;2023-06-22T18:53:05;18.07;;;16.23;;
8113;SDS011;4099;52.684;9.918;2023-06-22T18:58:14;16.13;;;14.53;;
8113;SDS011;4099;52.684;9.918;2023-06-22T19:03:28;16.40;;;14.70;;
8113;SDS011;4099;52.684;9.918;2023-06-22T19:14:08;18.80;;;16.70;;
8113;SDS011;4099;52.684;9.918;2023-06-22T19:19:11;16.77;;;15.27;;
8113;SDS011;4099;52.684;9.918;2023-06-22T19:24:27;17.73;;;16.13;;
8113;SDS011;4099;52.684;9.918;2023-06-22T19:29:32;17.00;;;15.50;;
8113;SDS011;4099;52.684;9.918;2023-06-22T19:34:35;18.17;;;16.47;;
8113;SDS011;4099;52.684;9.918;2023-06-22T19:39:46;19.73;;;17.83;;
8113;SDS011;4099;52.684;9.918;2023-06-22T19:44:51;19.90;;;17.83;;
8113;SDS011;4099;52.684;9.918;2023-06-22T19:49:57;16.73;;;15.23;;
8113;SDS011;4099;52.684;9.918;2023-06-22T19:55:01;19.07;;;17.17;;
8113;SDS011;4099;52.684;9.918;2023-06-22T20:00:07;18.87;;;16.97;;
8113;SDS011;4099;52.684;9.918;2023-06-22T20:05:13;17.87;;;16.27;;
8113;SDS011;4099;52.684;9.918;2023-06-22T20:10:17;19.30;;;17.57;;
8113;SDS011;4099;52.684;9.918;2023-06-22T20:15:23;19.07;;;17.47;;
8113;SDS011;4099;52.684;9.918;2023-06-22T20:20:27;20.53;;;18.63;;
8113;SDS011;4099;52.684;9.918;2023-06-22T20:25:34;24.53;;;19.80;;
8113;SDS011;4099;52.684;9.918;2023-06-22T20:30:39;20.50;;;18.73;;
8113;SDS011;4099;52.684;9.918;2023-06-22T20:35:44;20.93;;;18.90;;
8113;SDS011;4099;52.684;9.918;2023-06-22T20:40:49;20.97;;;19.07;;
8113;SDS011;4099;52.684;9.918;2023-06-22T20:45:53;21.23;;;19.43;;
8113;SDS011;4099;52.684;9.918;2023-06-22T21:03:46;22.00;;;20.10;;
8113;SDS011;4099;52.684;9.918;2023-06-22T21:08:48;24.93;;;22.73;;
8113;SDS011;4099;52.684;9.918;2023-06-22T21:13:49;24.57;;;22.33;;
8113;SDS011;4099;52.684;9.918;2023-06-22T21:18:53;23.77;;;21.67;;
8113;SDS011;4099;52.684;9.918;2023-06-22T21:23:55;22.20;;;20.20;;
8113;SDS011;4099;52.684;9.918;2023-06-22T21:28:57;23.20;;;21.20;;
8113;SDS011;4099;52.684;9.918;2023-06-22T21:34:00;24.00;;;21.80;;
8113;SDS011;4099;52.684;9.918;2023-06-22T21:39:02;22.10;;;20.07;;
8113;SDS011;4099;52.684;9.918;2023-06-22T21:44:04;21.33;;;19.33;;
8113;SDS011;4099;52.684;9.918;2023-06-22T21:49:07;19.90;;;18.30;;
8113;SDS011;4099;52.684;9.918;2023-06-22T21:54:09;19.50;;;17.80;;
8113;SDS011;4099;52.684;9.918;2023-06-22T21:59:11;20.90;;;19.00;;
8113;SDS011;4099;52.684;9.918;2023-06-22T22:04:14;18.63;;;17.03;;
8113;SDS011;4099;52.684;9.918;2023-06-22T22:09:16;19.67;;;18.07;;
8113;SDS011;4099;52.684;9.918;2023-06-22T22:14:20;20.40;;;18.60;;
8113;SDS011;4099;52.684;9.918;2023-06-22T22:19:23;21.50;;;19.60;;
8113;SDS011;4099;52.684;9.918;2023-06-22T22:24:25;20.10;;;18.30;;
8113;SDS011;4099;52.684;9.918;2023-06-22T22:29:29;23.40;;;21.50;;
8113;SDS011;4099;52.684;9.918;2023-06-22T22:34:33;21.43;;;19.53;;
8113;SDS011;4099;52.684;9.918;2023-06-22T22:39:35;22.27;;;20.40;;
8113;SDS011;4099;52.684;9.918;2023-06-22T22:44:38;20.57;;;18.87;;
8113;SDS011;4099;52.684;9.918;2023-06-22T22:49:41;22.20;;;20.20;;
8113;SDS011;4099;52.684;9.918;2023-06-22T22:54:43;21.77;;;19.97;;
8113;SDS011;4099;52.684;9.918;2023-06-22T22:59:45;19.07;;;17.47;;
8113;SDS011;4099;52.684;9.918;2023-06-22T23:04:54;20.77;;;18.90;;
8113;SDS011;4099;52.684;9.918;2023-06-22T23:09:57;20.07;;;18.37;;
8113;SDS011;4099;52.684;9.918;2023-06-22T23:14:59;20.63;;;18.90;;
8113;SDS011;4099;52.684;9.918;2023-06-22T23:20:04;20.43;;;18.57;;
8113;SDS011;4099;52.684;9.918;2023-06-22T23:25:08;18.03;;;16.50;;
8113;SDS011;4099;52.684;9.918;2023-06-22T23:30:10;19.33;;;17.67;;
8113;SDS011;4099;52.684;9.918;2023-06-22T23:35:14;18.53;;;16.73;;
8113;SDS011;4099;52.684;9.918;2023-06-22T23:40:16;17.43;;;15.80;;
8113;SDS011;4099;52.684;9.918;2023-06-22T23:45:19;16.43;;;15.00;;
8113;SDS011;4099;52.684;9.918;2023-06-22T23:50:23;16.73;;;15.07;;
8113;SDS011;4099;52.684;9.918;2023-06-22T23:55:25;15.30;;;13.93;;
